createdAt,value
2023-02-16T00:00:12.990Z,1012.14
2023-02-16T00:01:12.902Z,1012.11
2023-02-16T00:02:12.947Z,1012.14
2023-02-16T00:03:12.939Z,1012.14
2023-02-16T00:04:12.879Z,1012.12
2023-02-16T00:05:12.853Z,1012.13
2023-02-16T00:06:12.902Z,1012.15
2023-02-16T00:07:12.822Z,1012.13
2023-02-16T00:08:12.812Z,1012.11
2023-02-16T00:09:12.806Z,1012.04
2023-02-16T00:10:12.810Z,1012.07
2023-02-16T00:11:12.815Z,1012.13
2023-02-16T00:12:12.761Z,1012.09
2023-02-16T00:13:12.740Z,1012.13
2023-02-16T00:14:12.754Z,1012.11
2023-02-16T00:15:12.739Z,1012.12
2023-02-16T00:16:12.774Z,1012.09
2023-02-16T00:17:12.748Z,1012.11
2023-02-16T00:18:12.688Z,1012.10
2023-02-16T00:19:12.693Z,1012.06
2023-02-16T00:20:12.667Z,1012.06
2023-02-16T00:21:12.647Z,1012.02
2023-02-16T00:22:12.678Z,1012.05
2023-02-16T00:23:12.644Z,1012.03
2023-02-16T00:24:12.649Z,1012.02
2023-02-16T00:25:12.596Z,1011.99
2023-02-16T00:26:12.598Z,1011.96
2023-02-16T00:27:12.607Z,1011.94
2023-02-16T00:28:12.569Z,1011.91
2023-02-16T00:29:12.550Z,1011.93
2023-02-16T00:30:12.618Z,1011.90
2023-02-16T00:31:12.634Z,1011.91
2023-02-16T00:32:12.713Z,1011.92
2023-02-16T00:33:12.503Z,1011.85
2023-02-16T00:34:12.532Z,1011.86
2023-02-16T00:35:12.502Z,1011.84
2023-02-16T00:36:12.488Z,1011.83
2023-02-16T00:37:12.527Z,1011.82
2023-02-16T00:38:12.467Z,1011.82
2023-02-16T00:39:12.435Z,1011.81
2023-02-16T00:40:12.518Z,1011.83
2023-02-16T00:41:12.454Z,1011.74
2023-02-16T00:42:12.445Z,1011.76
2023-02-16T00:43:12.398Z,1011.75
2023-02-16T00:44:12.396Z,1011.78
2023-02-16T00:45:12.385Z,1011.75
2023-02-16T00:46:12.428Z,1011.81
2023-02-16T00:47:12.372Z,1011.77
2023-02-16T00:48:12.372Z,1011.80
2023-02-16T00:49:12.338Z,1011.76
2023-02-16T00:50:12.374Z,1011.75
2023-02-16T00:51:25.157Z,1011.70
2023-02-16T00:52:13.308Z,1011.70
2023-02-16T00:53:12.304Z,1011.76
2023-02-16T00:54:12.294Z,1011.79
2023-02-16T00:55:12.288Z,1011.78
2023-02-16T00:56:12.259Z,1011.73
2023-02-16T00:57:12.239Z,1011.72
2023-02-16T00:58:12.270Z,1011.70
2023-02-16T00:59:12.229Z,1011.68
2023-02-16T01:00:12.211Z,1011.67
2023-02-16T01:01:12.255Z,1011.68
2023-02-16T01:02:12.193Z,1011.71
2023-02-16T01:03:12.201Z,1011.72
2023-02-16T01:04:12.203Z,1011.75
2023-02-16T01:05:12.185Z,1011.75
2023-02-16T01:06:12.138Z,1011.75
2023-02-16T01:07:12.142Z,1011.76
2023-02-16T01:08:12.157Z,1011.77
2023-02-16T01:09:12.096Z,1011.75
2023-02-16T01:10:12.117Z,1011.74
2023-02-16T01:11:12.096Z,1011.70
2023-02-16T01:12:12.082Z,1011.68
2023-02-16T01:13:12.050Z,1011.74
2023-02-16T01:14:12.083Z,1011.70
2023-02-16T01:15:12.045Z,1011.72
2023-02-16T01:16:12.126Z,1011.69
2023-02-16T01:17:11.998Z,1011.72
2023-02-16T01:18:12.000Z,1011.74
2023-02-16T01:19:12.068Z,1011.71
2023-02-16T01:20:12.004Z,1011.70
2023-02-16T01:21:11.949Z,1011.69
2023-02-16T01:22:11.985Z,1011.68
2023-02-16T01:23:11.975Z,1011.70
2023-02-16T01:24:11.952Z,1011.70
2023-02-16T01:25:11.908Z,1011.69
2023-02-16T01:26:11.937Z,1011.67
2023-02-16T01:27:11.936Z,1011.66
2023-02-16T01:28:11.915Z,1011.71
2023-02-16T01:29:11.862Z,1011.73
2023-02-16T01:30:11.911Z,1011.72
2023-02-16T01:31:11.963Z,1011.78
2023-02-16T01:32:12.004Z,1011.77
2023-02-16T01:33:11.811Z,1011.70
2023-02-16T01:34:11.857Z,1011.67
2023-02-16T01:35:11.802Z,1011.62
2023-02-16T01:36:11.836Z,1011.61
2023-02-16T01:37:11.827Z,1011.61
2023-02-16T01:38:11.809Z,1011.61
2023-02-16T01:39:11.772Z,1011.58
2023-02-16T01:40:11.780Z,1011.57
2023-02-16T01:41:11.735Z,1011.57
2023-02-16T01:42:11.754Z,1011.53
2023-02-16T01:43:11.737Z,1011.59
2023-02-16T01:44:11.713Z,1011.55
2023-02-16T01:45:11.725Z,1011.61
2023-02-16T01:46:11.756Z,1011.61
2023-02-16T01:47:11.665Z,1011.66
2023-02-16T01:48:11.687Z,1011.63
2023-02-16T01:49:11.661Z,1011.60
2023-02-16T01:50:11.632Z,1011.66
2023-02-16T01:51:11.609Z,1011.62
2023-02-16T01:52:11.645Z,1011.61
2023-02-16T01:53:11.643Z,1011.62
2023-02-16T01:54:11.595Z,1011.64
2023-02-16T01:55:11.593Z,1011.67
2023-02-16T01:56:11.575Z,1011.59
2023-02-16T01:57:11.575Z,1011.59
2023-02-16T01:58:11.608Z,1011.62
2023-02-16T01:59:11.553Z,1011.58
2023-02-16T02:00:11.515Z,1011.58
2023-02-16T02:01:11.546Z,1011.48
2023-02-16T02:02:11.500Z,1011.51
2023-02-16T02:03:11.531Z,1011.48
2023-02-16T02:04:11.505Z,1011.47
2023-02-16T02:05:11.475Z,1011.51
2023-02-16T02:06:11.456Z,1011.50
2023-02-16T02:07:11.494Z,1011.44
2023-02-16T02:08:11.453Z,1011.45
2023-02-16T02:09:11.445Z,1011.49
2023-02-16T02:10:11.410Z,1011.48
2023-02-16T02:11:11.411Z,1011.53
2023-02-16T02:12:11.436Z,1011.52
2023-02-16T02:13:11.412Z,1011.53
2023-02-16T02:14:11.357Z,1011.46
2023-02-16T02:15:11.355Z,1011.49
2023-02-16T02:16:11.428Z,1011.46
2023-02-16T02:17:11.354Z,1011.43
2023-02-16T02:18:11.336Z,1011.42
2023-02-16T02:19:11.289Z,1011.39
2023-02-16T02:20:11.320Z,1011.45
2023-02-16T02:21:11.288Z,1011.42
2023-02-16T02:22:11.297Z,1011.42
2023-02-16T02:23:11.280Z,1011.41
2023-02-16T02:24:11.268Z,1011.41
2023-02-16T02:25:11.297Z,1011.42
2023-02-16T02:26:11.246Z,1011.36
2023-02-16T02:27:11.222Z,1011.38
2023-02-16T02:28:11.265Z,1011.37
2023-02-16T02:29:11.196Z,1011.38
2023-02-16T02:30:11.233Z,1011.41
2023-02-16T02:31:11.238Z,1011.40
2023-02-16T02:32:11.282Z,1011.46
2023-02-16T02:33:11.158Z,1011.41
2023-02-16T02:34:11.151Z,1011.48
2023-02-16T02:35:11.110Z,1011.45
2023-02-16T02:36:11.104Z,1011.43
2023-02-16T02:37:11.137Z,1011.43
2023-02-16T02:38:11.089Z,1011.40
2023-02-16T02:39:12.046Z,1011.43
2023-02-16T02:40:11.064Z,1011.41
2023-02-16T02:41:11.066Z,1011.40
2023-02-16T02:42:11.067Z,1011.36
2023-02-16T02:43:11.041Z,1011.37
2023-02-16T02:44:11.043Z,1011.32
2023-02-16T02:45:11.010Z,1011.36
2023-02-16T02:46:11.035Z,1011.31
2023-02-16T02:47:11.053Z,1011.31
2023-02-16T02:48:10.974Z,1011.26
2023-02-16T02:49:10.971Z,1011.28
2023-02-16T02:50:10.977Z,1011.21
2023-02-16T02:51:10.927Z,1011.27
2023-02-16T02:52:10.955Z,1011.28
2023-02-16T02:53:10.906Z,1011.27
2023-02-16T02:54:10.921Z,1011.24
2023-02-16T02:55:10.882Z,1011.19
2023-02-16T02:56:10.920Z,1011.19
2023-02-16T02:57:10.845Z,1011.22
2023-02-16T02:58:10.881Z,1011.17
2023-02-16T02:59:10.857Z,1011.19
2023-02-16T03:00:10.843Z,1011.24
2023-02-16T03:01:10.838Z,1011.23
2023-02-16T03:02:10.856Z,1011.22
2023-02-16T03:03:10.813Z,1011.22
2023-02-16T03:04:10.814Z,1011.20
2023-02-16T03:05:10.802Z,1011.14
2023-02-16T03:06:10.822Z,1011.17
2023-02-16T03:07:10.764Z,1011.15
2023-02-16T03:08:10.747Z,1011.19
2023-02-16T03:09:10.735Z,1011.14
2023-02-16T03:10:10.763Z,1011.17
2023-02-16T03:11:10.734Z,1011.13
2023-02-16T03:12:10.750Z,1011.14
2023-02-16T03:13:10.703Z,1011.13
2023-02-16T03:14:10.699Z,1011.15
2023-02-16T03:15:10.640Z,1011.15
2023-02-16T03:16:10.718Z,1011.11
2023-02-16T03:17:10.624Z,1011.11
2023-02-16T03:18:10.675Z,1011.12
2023-02-16T03:19:10.637Z,1011.06
2023-02-16T03:20:10.645Z,1011.15
2023-02-16T03:21:10.632Z,1011.11
2023-02-16T03:22:10.594Z,1011.11
2023-02-16T03:23:10.629Z,1011.13
2023-02-16T03:24:10.559Z,1011.12
2023-02-16T03:25:10.527Z,1011.12
2023-02-16T03:26:10.566Z,1011.16
2023-02-16T03:27:10.553Z,1011.08
2023-02-16T03:28:10.506Z,1011.03
2023-02-16T03:29:10.554Z,1011.04
2023-02-16T03:30:10.528Z,1011.05
2023-02-16T03:31:10.540Z,1011.02
2023-02-16T03:32:10.495Z,1010.99
2023-02-16T03:33:10.448Z,1010.97
2023-02-16T03:34:10.459Z,1010.94
2023-02-16T03:35:10.445Z,1010.92
2023-02-16T03:36:10.447Z,1010.96
2023-02-16T03:37:10.398Z,1010.90
2023-02-16T03:38:10.389Z,1010.90
2023-02-16T03:39:10.426Z,1010.85
2023-02-16T03:40:10.372Z,1010.87
2023-02-16T03:41:10.341Z,1010.87
2023-02-16T03:42:10.367Z,1010.85
2023-02-16T03:43:10.347Z,1010.85
2023-02-16T03:44:10.360Z,1010.84
2023-02-16T03:45:10.317Z,1010.81
2023-02-16T03:46:10.320Z,1010.86
2023-02-16T03:47:10.269Z,1010.86
2023-02-16T03:48:10.301Z,1010.90
2023-02-16T03:49:10.276Z,1010.91
2023-02-16T03:50:10.275Z,1010.88
2023-02-16T03:51:10.276Z,1010.88
2023-02-16T03:52:10.249Z,1010.92
2023-02-16T03:53:10.232Z,1010.89
2023-02-16T03:54:10.261Z,1010.94
2023-02-16T03:55:10.217Z,1010.92
2023-02-16T03:56:10.172Z,1010.89
2023-02-16T03:57:10.200Z,1010.90
2023-02-16T03:58:10.236Z,1010.87
2023-02-16T03:59:10.190Z,1010.88
2023-02-16T04:00:10.128Z,1010.89
2023-02-16T04:01:10.125Z,1010.90
2023-02-16T04:02:10.185Z,1010.89
2023-02-16T04:03:10.104Z,1010.87
2023-02-16T04:04:10.178Z,1010.87
2023-02-16T04:05:10.086Z,1010.91
2023-02-16T04:06:10.097Z,1010.86
2023-02-16T04:07:10.102Z,1010.88
2023-02-16T04:08:10.073Z,1010.88
2023-02-16T04:09:10.037Z,1010.92
2023-02-16T04:10:10.052Z,1010.93
2023-02-16T04:11:10.018Z,1010.97
2023-02-16T04:12:10.019Z,1010.98
2023-02-16T04:13:10.024Z,1010.91
2023-02-16T04:14:09.965Z,1010.90
2023-02-16T04:15:09.996Z,1010.91
2023-02-16T04:16:10.004Z,1010.92
2023-02-16T04:17:09.973Z,1010.89
2023-02-16T04:18:09.996Z,1010.86
2023-02-16T04:19:09.985Z,1011.02
2023-02-16T04:20:09.940Z,1011.05
2023-02-16T04:21:09.943Z,1011.02
2023-02-16T04:22:09.870Z,1011.04
2023-02-16T04:23:09.882Z,1011.08
2023-02-16T04:24:09.895Z,1011.06
2023-02-16T04:25:09.906Z,1011.03
2023-02-16T04:26:09.846Z,1011.02
2023-02-16T04:27:09.843Z,1011.05
2023-02-16T04:28:09.799Z,1010.99
2023-02-16T04:29:09.808Z,1010.98
2023-02-16T04:30:09.899Z,1011.08
2023-02-16T04:31:09.918Z,1011.06
2023-02-16T04:32:09.900Z,1011.08
2023-02-16T04:33:09.825Z,1011.05
2023-02-16T04:34:09.728Z,1011.06
2023-02-16T04:35:09.785Z,1011.01
2023-02-16T04:36:09.842Z,1010.97
2023-02-16T04:37:09.713Z,1010.97
2023-02-16T04:38:09.738Z,1010.92
2023-02-16T04:39:09.701Z,1010.92
2023-02-16T04:40:09.669Z,1010.88
2023-02-16T04:41:09.662Z,1010.84
2023-02-16T04:42:09.677Z,1010.88
2023-02-16T04:43:09.690Z,1010.84
2023-02-16T04:44:09.619Z,1010.75
2023-02-16T04:45:09.643Z,1010.74
2023-02-16T04:46:09.661Z,1010.74
2023-02-16T04:47:09.634Z,1010.78
2023-02-16T04:48:09.614Z,1010.83
2023-02-16T04:49:09.569Z,1010.75
2023-02-16T04:50:09.583Z,1010.81
2023-02-16T04:51:09.550Z,1010.86
2023-02-16T04:52:09.562Z,1010.88
2023-02-16T04:53:09.536Z,1010.84
2023-02-16T04:54:09.529Z,1010.85
2023-02-16T04:55:09.535Z,1010.86
2023-02-16T04:56:09.506Z,1010.80
2023-02-16T04:57:09.513Z,1010.78
2023-02-16T04:58:09.664Z,1010.82
2023-02-16T04:59:09.460Z,1010.83
2023-02-16T05:00:09.459Z,1010.79
2023-02-16T05:01:09.475Z,1010.82
2023-02-16T05:02:09.456Z,1010.81
2023-02-16T05:03:09.459Z,1010.78
2023-02-16T05:04:09.501Z,1010.77
2023-02-16T05:05:09.433Z,1010.76
2023-02-16T05:06:09.402Z,1010.72
2023-02-16T05:07:09.394Z,1010.70
2023-02-16T05:08:09.398Z,1010.68
2023-02-16T05:09:09.341Z,1010.67
2023-02-16T05:10:09.354Z,1010.74
2023-02-16T05:11:09.355Z,1010.71
2023-02-16T05:12:09.328Z,1010.75
2023-02-16T05:13:09.342Z,1010.78
2023-02-16T05:14:09.273Z,1010.79
2023-02-16T05:15:09.323Z,1010.75
2023-02-16T05:16:09.378Z,1010.83
2023-02-16T05:17:09.306Z,1010.82
2023-02-16T05:18:09.235Z,1010.83
2023-02-16T05:19:09.261Z,1010.85
2023-02-16T05:20:09.249Z,1010.87
2023-02-16T05:21:09.234Z,1010.88
2023-02-16T05:22:09.220Z,1010.89
2023-02-16T05:23:09.253Z,1010.91
2023-02-16T05:24:09.169Z,1010.96
2023-02-16T05:25:09.161Z,1010.95
2023-02-16T05:26:09.136Z,1010.92
2023-02-16T05:27:09.142Z,1010.91
2023-02-16T05:28:09.225Z,1010.92
2023-02-16T05:29:09.160Z,1010.97
2023-02-16T05:30:09.116Z,1010.90
2023-02-16T05:31:09.173Z,1010.93
2023-02-16T05:32:09.122Z,1010.86
2023-02-16T05:33:09.094Z,1010.92
2023-02-16T05:34:09.073Z,1010.91
2023-02-16T05:35:09.066Z,1010.86
2023-02-16T05:36:09.046Z,1010.92
2023-02-16T05:37:09.044Z,1010.91
2023-02-16T05:38:09.160Z,1010.89
2023-02-16T05:39:09.023Z,1010.93
2023-02-16T05:40:09.025Z,1010.98
2023-02-16T05:41:08.996Z,1010.93
2023-02-16T05:42:09.003Z,1010.96
2023-02-16T05:43:08.958Z,1011.03
2023-02-16T05:44:08.928Z,1011.09
2023-02-16T05:45:09.048Z,1011.10
2023-02-16T05:46:09.034Z,1011.05
2023-02-16T05:47:08.912Z,1011.03
2023-02-16T05:48:08.913Z,1011.01
2023-02-16T05:49:08.923Z,1010.98
2023-02-16T05:50:08.888Z,1011.02
2023-02-16T05:51:08.902Z,1010.94
2023-02-16T05:52:08.859Z,1010.93
2023-02-16T05:53:08.922Z,1010.94
2023-02-16T05:54:08.816Z,1010.93
2023-02-16T05:55:08.840Z,1010.90
2023-02-16T05:56:08.847Z,1010.90
2023-02-16T05:57:08.827Z,1010.93
2023-02-16T05:58:08.803Z,1010.89
2023-02-16T05:59:08.777Z,1010.91
2023-02-16T06:00:08.881Z,1010.90
2023-02-16T06:01:08.779Z,1010.87
2023-02-16T06:02:08.761Z,1010.90
2023-02-16T06:03:08.754Z,1010.91
2023-02-16T06:04:08.734Z,1010.91
2023-02-16T06:05:08.731Z,1010.96
2023-02-16T06:06:08.687Z,1011.00
2023-02-16T06:07:08.714Z,1010.99
2023-02-16T06:08:08.657Z,1011.00
2023-02-16T06:09:08.692Z,1011.01
2023-02-16T06:10:08.660Z,1011.01
2023-02-16T06:11:08.682Z,1011.06
2023-02-16T06:12:08.626Z,1011.08
2023-02-16T06:13:08.663Z,1011.03
2023-02-16T06:14:08.636Z,1011.05
2023-02-16T06:15:08.593Z,1011.01
2023-02-16T06:16:08.621Z,1011.06
2023-02-16T06:17:08.609Z,1011.05
2023-02-16T06:18:08.565Z,1010.96
2023-02-16T06:19:08.582Z,1011.04
2023-02-16T06:20:08.591Z,1011.00
2023-02-16T06:21:08.655Z,1010.99
2023-02-16T06:22:08.517Z,1011.01
2023-02-16T06:23:08.559Z,1010.97
2023-02-16T06:24:08.498Z,1010.94
2023-02-16T06:25:08.500Z,1010.94
2023-02-16T06:26:08.509Z,1010.95
2023-02-16T06:27:08.455Z,1010.89
2023-02-16T06:28:08.451Z,1010.98
2023-02-16T06:29:08.430Z,1011.03
2023-02-16T06:30:08.546Z,1011.05
2023-02-16T06:31:08.635Z,1011.05
2023-02-16T06:32:08.520Z,1010.99
2023-02-16T06:33:08.388Z,1010.96
2023-02-16T06:34:08.369Z,1010.97
2023-02-16T06:35:08.363Z,1010.94
2023-02-16T06:36:08.351Z,1010.93
2023-02-16T06:37:08.382Z,1010.92
2023-02-16T06:38:08.310Z,1010.87
2023-02-16T06:39:08.311Z,1010.84
2023-02-16T06:40:08.311Z,1010.89
2023-02-16T06:41:08.323Z,1010.91
2023-02-16T06:42:08.301Z,1010.93
2023-02-16T06:43:08.296Z,1010.91
2023-02-16T06:44:08.269Z,1010.97
2023-02-16T06:45:08.271Z,1010.96
2023-02-16T06:46:08.259Z,1010.94
2023-02-16T06:47:08.268Z,1011.00
2023-02-16T06:48:11.683Z,1010.99
2023-02-16T06:49:08.216Z,1010.96
2023-02-16T06:50:08.199Z,1011.00
2023-02-16T06:51:08.198Z,1010.96
2023-02-16T06:52:08.285Z,1010.99
2023-02-16T06:53:19.101Z,1010.99
2023-02-16T06:54:08.151Z,1010.92
2023-02-16T06:55:08.149Z,1010.94
2023-02-16T06:56:08.144Z,1010.93
2023-02-16T06:57:08.133Z,1010.98
2023-02-16T06:58:08.105Z,1011.00
2023-02-16T06:59:08.103Z,1010.99
2023-02-16T07:00:08.128Z,1011.03
2023-02-16T07:01:08.334Z,1011.03
2023-02-16T07:02:08.033Z,1011.05
2023-02-16T07:03:08.081Z,1011.04
2023-02-16T07:04:08.017Z,1011.00
2023-02-16T07:05:08.013Z,1010.99
2023-02-16T07:06:08.041Z,1011.02
2023-02-16T07:07:07.986Z,1011.05
2023-02-16T07:08:07.974Z,1011.02
2023-02-16T07:09:08.462Z,1011.05
2023-02-16T07:10:07.952Z,1010.97
2023-02-16T07:11:08.148Z,1010.94
2023-02-16T07:12:09.666Z,1010.97
2023-02-16T07:13:07.914Z,1010.90
2023-02-16T07:14:07.895Z,1010.93
2023-02-16T07:15:07.894Z,1010.89
2023-02-16T07:16:07.921Z,1010.96
2023-02-16T07:17:07.924Z,1010.91
2023-02-16T07:18:07.868Z,1010.89
2023-02-16T07:19:07.877Z,1010.94
2023-02-16T07:20:07.873Z,1010.91
2023-02-16T07:21:07.852Z,1010.91
2023-02-16T07:22:07.821Z,1010.92
2023-02-16T07:23:07.834Z,1010.87
2023-02-16T07:24:07.776Z,1010.86
2023-02-16T07:25:07.831Z,1010.78
2023-02-16T07:26:07.770Z,1010.87
2023-02-16T07:27:07.793Z,1010.95
2023-02-16T07:28:07.734Z,1010.97
2023-02-16T07:29:07.766Z,1010.97
2023-02-16T07:30:07.736Z,1011.03
2023-02-16T07:31:08.250Z,1011.05
2023-02-16T07:32:07.888Z,1010.91
2023-02-16T07:33:07.699Z,1010.97
2023-02-16T07:34:07.657Z,1010.97
2023-02-16T07:35:07.667Z,1010.97
2023-02-16T07:36:07.696Z,1010.97
2023-02-16T07:37:07.642Z,1010.98
2023-02-16T07:38:07.631Z,1010.96
2023-02-16T07:39:07.644Z,1010.98
2023-02-16T07:40:07.635Z,1010.96
2023-02-16T07:41:09.766Z,1011.01
2023-02-16T07:42:28.622Z,1011.08
2023-02-16T07:43:07.559Z,1011.04
2023-02-16T07:44:07.607Z,1011.07
2023-02-16T07:45:07.584Z,1011.05
2023-02-16T07:46:07.659Z,1011.01
2023-02-16T07:47:07.540Z,1010.99
2023-02-16T07:48:07.546Z,1010.98
2023-02-16T07:49:07.514Z,1010.94
2023-02-16T07:50:07.536Z,1011.01
2023-02-16T07:51:07.911Z,1011.06
2023-02-16T07:52:07.478Z,1011.08
2023-02-16T07:53:07.448Z,1011.00
2023-02-16T07:54:07.454Z,1010.98
2023-02-16T07:55:07.476Z,1010.96
2023-02-16T07:56:07.445Z,1010.97
2023-02-16T07:57:07.428Z,1010.99
2023-02-16T07:58:07.398Z,1010.95
2023-02-16T07:59:07.403Z,1010.86
2023-02-16T08:00:07.402Z,1010.82
2023-02-16T08:01:07.385Z,1010.80
2023-02-16T08:02:07.478Z,1010.86
2023-02-16T08:03:07.450Z,1010.87
2023-02-16T08:04:07.360Z,1010.81
2023-02-16T08:05:07.330Z,1010.78
2023-02-16T08:06:07.353Z,1010.86
2023-02-16T08:07:07.306Z,1010.86
2023-02-16T08:08:07.281Z,1010.89
2023-02-16T08:09:07.280Z,1010.84
2023-02-16T08:10:07.253Z,1010.84
2023-02-16T08:11:07.297Z,1010.84
2023-02-16T08:12:07.232Z,1010.80
2023-02-16T08:13:17.187Z,1010.79
2023-02-16T08:14:15.671Z,1010.78
2023-02-16T08:15:07.210Z,1010.86
2023-02-16T08:16:07.509Z,1010.83
2023-02-16T08:17:07.237Z,1010.90
2023-02-16T08:18:07.180Z,1010.91
2023-02-16T08:19:07.183Z,1010.96
2023-02-16T08:20:07.170Z,1010.93
2023-02-16T08:21:07.192Z,1010.98
2023-02-16T08:22:07.148Z,1010.88
2023-02-16T08:23:07.143Z,1010.86
2023-02-16T08:24:07.104Z,1010.90
2023-02-16T08:25:07.280Z,1010.92
2023-02-16T08:26:07.103Z,1010.93
2023-02-16T08:27:07.122Z,1010.93
2023-02-16T08:28:07.068Z,1010.88
2023-02-16T08:29:07.085Z,1010.85
2023-02-16T08:30:07.061Z,1010.85
2023-02-16T08:31:07.156Z,1010.88
2023-02-16T08:32:07.080Z,1010.88
2023-02-16T08:33:07.000Z,1010.93
2023-02-16T08:34:07.012Z,1010.95
2023-02-16T08:35:06.981Z,1010.92
2023-02-16T08:36:07.081Z,1010.86
2023-02-16T08:37:07.010Z,1010.91
2023-02-16T08:38:06.932Z,1010.85
2023-02-16T08:39:06.965Z,1010.92
2023-02-16T08:40:06.912Z,1010.88
2023-02-16T08:41:06.912Z,1010.88
2023-02-16T08:42:06.938Z,1010.88
2023-02-16T08:43:06.883Z,1010.93
2023-02-16T08:44:06.887Z,1010.98
2023-02-16T08:45:06.881Z,1010.99
2023-02-16T08:46:07.345Z,1010.97
2023-02-16T08:47:06.893Z,1010.96
2023-02-16T08:48:06.847Z,1011.00
2023-02-16T08:49:06.837Z,1011.00
2023-02-16T08:50:06.816Z,1010.97
2023-02-16T08:51:06.818Z,1010.99
2023-02-16T08:52:06.824Z,1010.98
2023-02-16T08:53:06.773Z,1010.97
2023-02-16T08:54:06.779Z,1011.05
2023-02-16T08:55:06.742Z,1011.03
2023-02-16T08:56:07.074Z,1011.06
2023-02-16T08:57:06.720Z,1011.01
2023-02-16T08:58:06.736Z,1010.96
2023-02-16T08:59:06.822Z,1010.96
2023-02-16T09:00:06.748Z,1010.99
2023-02-16T09:01:06.746Z,1011.03
2023-02-16T09:02:06.677Z,1011.00
2023-02-16T09:03:06.674Z,1011.08
2023-02-16T09:04:06.621Z,1011.12
2023-02-16T09:05:06.662Z,1011.08
2023-02-16T09:06:06.922Z,1011.10
2023-02-16T09:07:06.628Z,1011.12
2023-02-16T09:08:06.572Z,1011.18
2023-02-16T09:09:06.628Z,1011.18
2023-02-16T09:10:06.592Z,1011.18
2023-02-16T09:11:06.778Z,1011.21
2023-02-16T09:12:06.529Z,1011.20
2023-02-16T09:13:06.568Z,1011.24
2023-02-16T09:14:06.527Z,1011.25
2023-02-16T09:15:06.500Z,1011.26
2023-02-16T09:16:06.754Z,1011.21
2023-02-16T09:17:06.603Z,1011.26
2023-02-16T09:18:06.483Z,1011.24
2023-02-16T09:19:06.469Z,1011.19
2023-02-16T09:20:06.460Z,1011.19
2023-02-16T09:21:06.434Z,1011.19
2023-02-16T09:22:06.420Z,1011.25
2023-02-16T09:23:06.461Z,1011.17
2023-02-16T09:24:06.387Z,1011.20
2023-02-16T09:25:06.394Z,1011.18
2023-02-16T09:26:06.504Z,1011.18
2023-02-16T09:27:06.371Z,1011.20
2023-02-16T09:28:06.403Z,1011.21
2023-02-16T09:29:06.345Z,1011.23
2023-02-16T09:30:06.364Z,1011.19
2023-02-16T09:31:06.460Z,1011.16
2023-02-16T09:32:06.306Z,1011.18
2023-02-16T09:33:06.350Z,1011.13
2023-02-16T09:34:06.301Z,1011.17
2023-02-16T09:35:06.274Z,1011.14
2023-02-16T09:36:06.545Z,1011.17
2023-02-16T09:37:07.253Z,1011.18
2023-02-16T09:38:06.273Z,1011.15
2023-02-16T09:39:06.236Z,1011.19
2023-02-16T09:40:06.239Z,1011.16
2023-02-16T09:41:06.233Z,1011.18
2023-02-16T09:42:06.188Z,1011.18
2023-02-16T09:43:06.242Z,1011.17
2023-02-16T09:44:06.196Z,1011.19
2023-02-16T09:45:09.226Z,1011.18
2023-02-16T09:46:06.491Z,1011.17
2023-02-16T09:47:06.149Z,1011.27
2023-02-16T09:48:06.119Z,1011.18
2023-02-16T09:49:06.185Z,1011.20
2023-02-16T09:50:06.091Z,1011.22
2023-02-16T09:51:06.099Z,1011.22
2023-02-16T09:52:06.092Z,1011.20
2023-02-16T09:53:06.094Z,1011.22
2023-02-16T09:54:06.112Z,1011.21
2023-02-16T09:55:06.084Z,1011.20
2023-02-16T09:56:06.509Z,1011.14
2023-02-16T09:57:06.021Z,1011.13
2023-02-16T09:58:06.028Z,1011.17
2023-02-16T09:59:06.024Z,1011.25
2023-02-16T10:00:06.020Z,1011.12
2023-02-16T10:01:06.028Z,1011.12
2023-02-16T10:02:05.985Z,1011.19
2023-02-16T10:03:06.198Z,1011.25
2023-02-16T10:04:05.963Z,1011.22
2023-02-16T10:05:05.958Z,1011.25
2023-02-16T10:06:06.240Z,1011.22
2023-02-16T10:07:05.939Z,1011.18
2023-02-16T10:08:06.089Z,1011.19
2023-02-16T10:09:05.933Z,1011.20
2023-02-16T10:10:05.890Z,1011.17
2023-02-16T10:11:06.221Z,1011.14
2023-02-16T10:12:05.894Z,1011.20
2023-02-16T10:13:05.892Z,1011.18
2023-02-16T10:14:05.861Z,1011.29
2023-02-16T10:15:05.832Z,1011.26
2023-02-16T10:16:05.849Z,1011.29
2023-02-16T10:17:05.843Z,1011.27
2023-02-16T10:18:05.770Z,1011.27
2023-02-16T10:19:05.767Z,1011.29
2023-02-16T10:20:05.747Z,1011.26
2023-02-16T10:21:06.126Z,1011.30
2023-02-16T10:22:05.758Z,1011.28
2023-02-16T10:23:05.718Z,1011.31
2023-02-16T10:24:05.713Z,1011.35
2023-02-16T10:25:05.718Z,1011.32
2023-02-16T10:26:05.716Z,1011.40
2023-02-16T10:27:05.724Z,1011.37
2023-02-16T10:28:05.675Z,1011.37
2023-02-16T10:29:05.676Z,1011.37
2023-02-16T10:30:05.656Z,1011.34
2023-02-16T10:31:06.126Z,1011.35
2023-02-16T10:32:05.708Z,1011.37
2023-02-16T10:33:05.644Z,1011.38
2023-02-16T10:34:05.654Z,1011.34
2023-02-16T10:35:05.585Z,1011.34
2023-02-16T10:36:05.593Z,1011.33
2023-02-16T10:37:05.589Z,1011.34
2023-02-16T10:38:05.606Z,1011.32
2023-02-16T10:39:05.563Z,1011.31
2023-02-16T10:40:05.542Z,1011.29
2023-02-16T10:41:12.196Z,1011.33
2023-02-16T10:42:05.532Z,1011.34
2023-02-16T10:43:05.503Z,1011.29
2023-02-16T10:44:05.554Z,1011.28
2023-02-16T10:45:05.468Z,1011.25
2023-02-16T10:46:05.506Z,1011.27
2023-02-16T10:47:05.474Z,1011.26
2023-02-16T10:48:05.420Z,1011.30
2023-02-16T10:49:05.476Z,1011.26
2023-02-16T10:50:05.434Z,1011.33
2023-02-16T10:51:05.648Z,1011.32
2023-02-16T10:52:05.393Z,1011.30
2023-02-16T10:53:05.430Z,1011.31
2023-02-16T10:54:05.355Z,1011.30
2023-02-16T10:55:05.400Z,1011.24
2023-02-16T10:56:05.390Z,1011.30
2023-02-16T10:57:05.358Z,1011.28
2023-02-16T10:58:05.337Z,1011.32
2023-02-16T10:59:05.318Z,1011.27
2023-02-16T11:00:05.401Z,1011.28
2023-02-16T11:01:05.538Z,1011.22
2023-02-16T11:02:05.291Z,1011.22
2023-02-16T11:03:05.294Z,1011.31
2023-02-16T11:04:05.296Z,1011.32
2023-02-16T11:05:05.295Z,1011.28
2023-02-16T11:06:05.546Z,1011.33
2023-02-16T11:07:05.257Z,1011.38
2023-02-16T11:08:05.195Z,1011.38
2023-02-16T11:09:05.242Z,1011.34
2023-02-16T11:10:05.184Z,1011.26
2023-02-16T11:11:05.494Z,1011.28
2023-02-16T11:12:05.164Z,1011.28
2023-02-16T11:13:05.174Z,1011.28
2023-02-16T11:14:06.411Z,1011.29
2023-02-16T11:15:05.158Z,1011.25
2023-02-16T11:16:05.146Z,1011.28
2023-02-16T11:17:05.121Z,1011.25
2023-02-16T11:18:05.068Z,1011.22
2023-02-16T11:19:05.118Z,1011.18
2023-02-16T11:20:05.053Z,1011.17
2023-02-16T11:21:05.328Z,1011.25
2023-02-16T11:22:05.031Z,1011.12
2023-02-16T11:23:05.023Z,1011.09
2023-02-16T11:24:05.033Z,1011.07
2023-02-16T11:25:05.027Z,1011.14
2023-02-16T11:26:04.993Z,1011.17
2023-02-16T11:27:05.007Z,1011.18
2023-02-16T11:28:04.980Z,1011.25
2023-02-16T11:29:04.995Z,1011.21
2023-02-16T11:30:04.952Z,1011.21
2023-02-16T11:31:05.381Z,1011.22
2023-02-16T11:32:05.023Z,1011.22
2023-02-16T11:33:04.909Z,1011.23
2023-02-16T11:34:06.105Z,1011.19
2023-02-16T11:35:04.911Z,1011.08
2023-02-16T11:36:04.865Z,1011.10
2023-02-16T11:37:04.863Z,1011.05
2023-02-16T11:38:04.848Z,1011.11
2023-02-16T11:39:04.870Z,1011.01
2023-02-16T11:40:04.850Z,1011.02
2023-02-16T11:41:05.342Z,1011.01
2023-02-16T11:42:04.811Z,1010.95
2023-02-16T11:43:04.830Z,1010.99
2023-02-16T11:44:04.819Z,1010.96
2023-02-16T11:45:04.767Z,1010.84
2023-02-16T11:46:05.115Z,1010.80
2023-02-16T11:47:04.771Z,1010.83
2023-02-16T11:48:04.736Z,1010.88
2023-02-16T11:49:04.855Z,1010.84
2023-02-16T11:50:04.731Z,1010.87
2023-02-16T11:51:04.993Z,1010.88
2023-02-16T11:52:04.686Z,1010.90
2023-02-16T11:53:04.661Z,1010.83
2023-02-16T11:54:04.668Z,1010.78
2023-02-16T11:55:04.643Z,1010.80
2023-02-16T11:56:04.977Z,1010.83
2023-02-16T11:57:04.627Z,1010.71
2023-02-16T11:58:04.593Z,1010.76
2023-02-16T11:59:04.628Z,1010.70
2023-02-16T12:00:04.631Z,1010.73
2023-02-16T12:01:04.981Z,1010.75
2023-02-16T12:02:04.588Z,1010.68
2023-02-16T12:03:04.544Z,1010.68
2023-02-16T12:04:04.656Z,1010.69
2023-02-16T12:05:04.572Z,1010.69